createdAt,value
2023-03-17T00:00:05.986Z,2.54
2023-03-17T00:01:05.968Z,2.49
2023-03-17T00:02:05.963Z,2.49
2023-03-17T00:03:05.974Z,2.54
2023-03-17T00:04:06.116Z,2.56
2023-03-17T00:05:05.944Z,2.56
2023-03-17T00:06:05.892Z,2.56
2023-03-17T00:07:05.903Z,2.54
2023-03-17T00:08:05.891Z,2.52
2023-03-17T00:09:05.952Z,2.49
2023-03-17T00:10:05.846Z,2.48
2023-03-17T00:11:05.858Z,2.46
2023-03-17T00:12:05.847Z,2.48
2023-03-17T00:13:05.830Z,2.49
2023-03-17T00:14:05.807Z,2.49
2023-03-17T00:15:05.833Z,2.52
2023-03-17T00:16:05.847Z,2.52
2023-03-17T00:17:05.798Z,2.56
2023-03-17T00:18:05.760Z,2.57
2023-03-17T00:19:05.765Z,2.57
2023-03-17T00:20:05.736Z,2.57
2023-03-17T00:21:05.749Z,2.54
2023-03-17T00:22:05.716Z,2.54
2023-03-17T00:23:05.735Z,2.53
2023-03-17T00:24:05.747Z,2.52
2023-03-17T00:25:05.708Z,2.52
2023-03-17T00:26:05.686Z,2.53
2023-03-17T00:27:05.685Z,2.54
2023-03-17T00:28:05.655Z,2.59
2023-03-17T00:29:05.668Z,2.64
2023-03-17T00:30:05.636Z,2.66
2023-03-17T00:31:05.733Z,2.66
2023-03-17T00:32:05.620Z,2.66
2023-03-17T00:33:05.623Z,2.66
2023-03-17T00:34:05.573Z,2.66
2023-03-17T00:35:05.594Z,2.67
2023-03-17T00:36:05.633Z,2.72
2023-03-17T00:37:05.565Z,2.77
2023-03-17T00:38:05.561Z,2.78
2023-03-17T00:39:05.544Z,2.79
2023-03-17T00:40:05.538Z,2.81
2023-03-17T00:41:05.540Z,2.82
2023-03-17T00:42:05.517Z,2.84
2023-03-17T00:43:05.572Z,2.87
2023-03-17T00:44:05.474Z,2.92
2023-03-17T00:45:05.485Z,2.93
2023-03-17T00:46:05.454Z,2.93
2023-03-17T00:47:05.490Z,2.92
2023-03-17T00:48:05.419Z,2.89
2023-03-17T00:49:05.437Z,2.85
2023-03-17T00:50:05.394Z,2.82
2023-03-17T00:51:05.468Z,2.81
2023-03-17T00:52:05.373Z,2.77
2023-03-17T00:53:05.388Z,2.75
2023-03-17T00:54:05.348Z,2.72
2023-03-17T00:55:05.363Z,2.67
2023-03-17T00:56:05.342Z,2.66
2023-03-17T00:57:05.350Z,2.60
2023-03-17T00:58:05.310Z,2.57
2023-03-17T00:59:05.318Z,2.57
2023-03-17T01:00:05.294Z,2.57
2023-03-17T01:01:05.381Z,2.57
2023-03-17T01:02:05.306Z,2.56
2023-03-17T01:03:05.287Z,2.57
2023-03-17T01:04:05.259Z,2.61
2023-03-17T01:05:06.740Z,2.64
2023-03-17T01:06:05.231Z,2.67
2023-03-17T01:07:05.237Z,2.71
2023-03-17T01:08:05.208Z,2.78
2023-03-17T01:09:05.220Z,2.78
2023-03-17T01:10:05.218Z,2.85
2023-03-17T01:11:05.160Z,2.84
2023-03-17T01:12:05.180Z,2.85
2023-03-17T01:13:05.149Z,2.84
2023-03-17T01:14:05.165Z,2.89
2023-03-17T01:15:05.133Z,2.95
2023-03-17T01:16:05.140Z,3.08
2023-03-17T01:17:05.098Z,3.15
2023-03-17T01:18:05.113Z,3.21
2023-03-17T01:19:05.075Z,3.20
2023-03-17T01:20:05.084Z,3.21
2023-03-17T01:21:05.080Z,3.23
2023-03-17T01:22:05.056Z,3.21
2023-03-17T01:23:05.025Z,3.18
2023-03-17T01:24:05.047Z,3.15
2023-03-17T01:25:05.026Z,3.13
2023-03-17T01:26:05.046Z,3.10
2023-03-17T01:27:05.045Z,3.05
2023-03-17T01:28:04.999Z,3.02
2023-03-17T01:29:04.975Z,2.99
2023-03-17T01:30:04.978Z,2.95
2023-03-17T01:31:04.950Z,2.87
2023-03-17T01:32:04.957Z,2.84
2023-03-17T01:33:04.960Z,2.79
2023-03-17T01:34:04.944Z,2.79
2023-03-17T01:35:04.898Z,2.77
2023-03-17T01:36:04.916Z,2.74
2023-03-17T01:37:04.900Z,2.72
2023-03-17T01:38:04.892Z,2.69
2023-03-17T01:39:04.848Z,2.67
2023-03-17T01:40:04.864Z,2.66
2023-03-17T01:41:04.826Z,2.64
2023-03-17T01:42:04.855Z,2.63
2023-03-17T01:43:04.820Z,2.61
2023-03-17T01:44:04.853Z,2.63
2023-03-17T01:45:04.798Z,2.64
2023-03-17T01:46:04.856Z,2.64
2023-03-17T01:47:04.764Z,2.61
2023-03-17T01:48:04.774Z,2.60
2023-03-17T01:49:04.742Z,2.57
2023-03-17T01:50:04.762Z,2.54
2023-03-17T01:51:04.720Z,2.49
2023-03-17T01:52:04.726Z,2.48
2023-03-17T01:53:04.715Z,2.49
2023-03-17T01:54:04.704Z,2.52
2023-03-17T01:55:04.677Z,2.53
2023-03-17T01:56:04.696Z,2.53
2023-03-17T01:57:04.652Z,2.53
2023-03-17T01:58:04.665Z,2.49
2023-03-17T01:59:04.634Z,2.48
2023-03-17T02:00:04.637Z,2.46
2023-03-17T02:01:04.649Z,2.48
2023-03-17T02:02:04.630Z,2.52
2023-03-17T02:03:04.598Z,2.49
2023-03-17T02:04:04.739Z,2.48
2023-03-17T02:05:04.585Z,2.48
2023-03-17T02:06:04.572Z,2.45
2023-03-17T02:07:04.556Z,2.43
2023-03-17T02:08:04.553Z,2.43
2023-03-17T02:09:04.514Z,2.41
2023-03-17T02:10:04.527Z,2.39
2023-03-17T02:11:04.504Z,2.34
2023-03-17T02:12:04.513Z,2.30
2023-03-17T02:13:04.490Z,2.31
2023-03-17T02:14:04.482Z,2.30
2023-03-17T02:15:04.466Z,2.28
2023-03-17T02:16:04.640Z,2.28
2023-03-17T02:17:04.420Z,2.27
2023-03-17T02:18:04.448Z,2.23
2023-03-17T02:19:04.413Z,2.20
2023-03-17T02:20:04.436Z,2.14
2023-03-17T02:21:04.390Z,2.12
2023-03-17T02:22:04.400Z,2.09
2023-03-17T02:23:04.364Z,2.07
2023-03-17T02:24:04.373Z,2.05
2023-03-17T02:25:04.359Z,2.02
2023-03-17T02:26:04.370Z,1.99
2023-03-17T02:27:04.391Z,1.98
2023-03-17T02:28:04.374Z,1.90
2023-03-17T02:29:04.322Z,1.87
2023-03-17T02:30:04.342Z,1.84
2023-03-17T02:31:04.337Z,1.81
2023-03-17T02:32:04.324Z,1.77
2023-03-17T02:33:04.297Z,1.73
2023-03-17T02:34:04.258Z,1.80
2023-03-17T02:35:04.270Z,1.83
2023-03-17T02:36:04.558Z,1.83
2023-03-17T02:37:04.203Z,1.83
2023-03-17T02:38:04.212Z,1.81
2023-03-17T02:39:04.222Z,1.81
2023-03-17T02:40:04.223Z,1.81
2023-03-17T02:41:04.164Z,1.80
2023-03-17T02:42:04.198Z,1.79
2023-03-17T02:43:04.142Z,1.79
2023-03-17T02:44:05.084Z,1.80
2023-03-17T02:45:04.220Z,1.83
2023-03-17T02:46:04.173Z,1.83
2023-03-17T02:47:04.092Z,1.86
2023-03-17T02:48:04.132Z,1.87
2023-03-17T02:49:04.086Z,1.93
2023-03-17T02:50:04.097Z,2.03
2023-03-17T02:51:04.057Z,2.02
2023-03-17T02:52:04.066Z,2.03
2023-03-17T02:53:04.023Z,2.02
2023-03-17T02:54:04.061Z,2.05
2023-03-17T02:55:04.034Z,2.02
2023-03-17T02:56:04.022Z,2.06
2023-03-17T02:57:03.983Z,2.09
2023-03-17T02:58:04.005Z,2.14
2023-03-17T02:59:03.973Z,2.16
2023-03-17T03:00:03.998Z,2.12
2023-03-17T03:01:03.977Z,2.14
2023-03-17T03:02:03.958Z,2.16
2023-03-17T03:03:03.929Z,2.18
2023-03-17T03:04:03.950Z,2.16
2023-03-17T03:05:03.910Z,2.16
2023-03-17T03:06:04.621Z,2.10
2023-03-17T03:07:03.897Z,2.06
2023-03-17T03:08:03.891Z,2.06
2023-03-17T03:09:03.861Z,2.03
2023-03-17T03:10:03.883Z,2.00
2023-03-17T03:11:03.833Z,1.95
2023-03-17T03:12:03.861Z,1.90
2023-03-17T03:13:03.810Z,1.88
2023-03-17T03:14:03.823Z,1.86
2023-03-17T03:15:03.796Z,1.87
2023-03-17T03:16:03.874Z,1.91
2023-03-17T03:17:03.793Z,1.91
2023-03-17T03:18:03.782Z,1.93
2023-03-17T03:19:03.732Z,1.88
2023-03-17T03:20:03.752Z,1.86
2023-03-17T03:21:03.735Z,1.83
2023-03-17T03:22:03.769Z,1.81
2023-03-17T03:23:03.691Z,1.76
2023-03-17T03:24:03.719Z,1.72
2023-03-17T03:25:03.681Z,1.68
2023-03-17T03:26:03.711Z,1.65
2023-03-17T03:27:03.661Z,1.60
2023-03-17T03:28:03.694Z,1.58
2023-03-17T03:29:03.649Z,1.51
2023-03-17T03:30:03.641Z,1.50
2023-03-17T03:31:03.701Z,1.50
2023-03-17T03:32:03.654Z,1.51
2023-03-17T03:33:03.601Z,1.50
2023-03-17T03:34:03.611Z,1.47
2023-03-17T03:35:03.576Z,1.45
2023-03-17T03:36:03.666Z,1.44
2023-03-17T03:37:03.562Z,1.42
2023-03-17T03:38:03.552Z,1.42
2023-03-17T03:39:03.518Z,1.40
2023-03-17T03:40:03.593Z,1.34
2023-03-17T03:41:03.511Z,1.32
2023-03-17T03:42:03.520Z,1.29
2023-03-17T03:43:12.988Z,1.30
2023-03-17T03:44:04.495Z,1.29
2023-03-17T03:45:03.452Z,1.27
2023-03-17T03:46:03.523Z,1.24
2023-03-17T03:47:03.438Z,1.20
2023-03-17T03:48:03.453Z,1.20
2023-03-17T03:49:03.433Z,1.22
2023-03-17T03:50:03.425Z,1.22
2023-03-17T03:51:03.392Z,1.22
2023-03-17T03:52:03.401Z,1.16
2023-03-17T03:53:03.366Z,1.14
2023-03-17T03:54:03.374Z,1.12
2023-03-17T03:55:03.339Z,1.09
2023-03-17T03:56:03.353Z,1.06
2023-03-17T03:57:03.313Z,1.09
2023-03-17T03:58:03.332Z,1.15
2023-03-17T03:59:03.306Z,1.15
2023-03-17T04:00:03.310Z,1.14
2023-03-17T04:01:03.276Z,1.11
2023-03-17T04:02:03.302Z,1.09
2023-03-17T04:03:03.303Z,1.08
2023-03-17T04:04:03.276Z,1.08
2023-03-17T04:05:03.360Z,1.09
2023-03-17T04:06:03.250Z,1.06
2023-03-17T04:07:03.213Z,1.04
2023-03-17T04:08:03.222Z,1.00
2023-03-17T04:09:03.194Z,1.02
2023-03-17T04:10:03.651Z,1.00
2023-03-17T04:11:03.194Z,0.96
2023-03-17T04:12:03.188Z,0.93
2023-03-17T04:13:03.141Z,0.90
2023-03-17T04:14:03.150Z,0.88
2023-03-17T04:15:03.133Z,0.90
2023-03-17T04:16:03.168Z,0.91
2023-03-17T04:17:03.102Z,0.93
2023-03-17T04:18:03.123Z,0.96
2023-03-17T04:19:03.099Z,0.97
2023-03-17T04:20:03.087Z,0.97
2023-03-17T04:21:03.066Z,0.97
2023-03-17T04:22:03.076Z,0.97
2023-03-17T04:23:03.028Z,1.00
2023-03-17T04:24:03.038Z,0.98
2023-03-17T04:25:03.002Z,0.96
2023-03-17T04:26:03.029Z,0.93
2023-03-17T04:27:04.873Z,0.87
2023-03-17T04:28:03.016Z,0.86
2023-03-17T04:29:02.978Z,0.86
2023-03-17T04:30:02.987Z,0.86
2023-03-17T04:31:02.952Z,0.80
2023-03-17T04:32:02.988Z,0.79
2023-03-17T04:33:03.026Z,0.75
2023-03-17T04:34:02.928Z,0.70
2023-03-17T04:35:02.899Z,0.66
2023-03-17T04:36:02.951Z,0.65
2023-03-17T04:37:02.866Z,0.65
2023-03-17T04:38:02.898Z,0.68
2023-03-17T04:39:02.857Z,0.70
2023-03-17T04:40:02.875Z,0.73
2023-03-17T04:41:02.839Z,0.73
2023-03-17T04:42:02.866Z,0.73
2023-03-17T04:43:03.620Z,0.69
2023-03-17T04:44:02.854Z,0.65
2023-03-17T04:45:02.823Z,0.62
2023-03-17T04:46:02.910Z,0.60
2023-03-17T04:47:02.793Z,0.55
2023-03-17T04:48:02.794Z,0.53
2023-03-17T04:49:02.752Z,0.53
2023-03-17T04:50:02.810Z,0.49
2023-03-17T04:51:02.745Z,0.47
2023-03-17T04:52:02.736Z,0.42
2023-03-17T04:53:02.773Z,0.44
2023-03-17T04:54:02.738Z,0.46
2023-03-17T04:55:02.707Z,0.44
2023-03-17T04:56:02.729Z,0.44
2023-03-17T04:57:02.671Z,0.41
2023-03-17T04:58:02.676Z,0.39
2023-03-17T04:59:02.645Z,0.36
2023-03-17T05:00:02.687Z,0.38
2023-03-17T05:01:02.680Z,0.41
2023-03-17T05:02:02.691Z,0.41
2023-03-17T05:03:02.862Z,0.41
2023-03-17T05:04:02.625Z,0.39
2023-03-17T05:05:02.611Z,0.38
2023-03-17T05:06:02.610Z,0.32
2023-03-17T05:07:02.579Z,0.29
2023-03-17T05:08:02.588Z,0.26
2023-03-17T05:09:02.547Z,0.23
2023-03-17T05:10:02.556Z,0.23
2023-03-17T05:11:02.741Z,0.23
2023-03-17T05:12:02.539Z,0.21
2023-03-17T05:13:02.494Z,0.20
2023-03-17T05:14:02.552Z,0.18
2023-03-17T05:15:02.465Z,0.15
2023-03-17T05:16:02.487Z,0.21
2023-03-17T05:17:02.459Z,0.32
2023-03-17T05:18:04.916Z,0.36
2023-03-17T05:19:02.422Z,0.38
2023-03-17T05:20:02.464Z,0.33
2023-03-17T05:21:02.459Z,0.31
2023-03-17T05:22:02.425Z,0.33
2023-03-17T05:23:02.381Z,0.31
2023-03-17T05:24:02.394Z,0.31
2023-03-17T05:25:02.376Z,0.31
2023-03-17T05:26:02.356Z,0.31
2023-03-17T05:27:02.405Z,0.29
2023-03-17T05:28:02.330Z,0.28
2023-03-17T05:29:02.445Z,0.31
2023-03-17T05:30:03.308Z,0.29
2023-03-17T05:31:02.429Z,0.29
2023-03-17T05:32:02.327Z,0.31
2023-03-17T05:33:02.361Z,0.29
2023-03-17T05:34:02.305Z,0.28
2023-03-17T05:35:02.262Z,0.24
2023-03-17T05:36:02.314Z,0.23
2023-03-17T05:37:02.262Z,0.23
2023-03-17T05:38:02.230Z,0.23
2023-03-17T05:39:02.250Z,0.23
2023-03-17T05:40:02.224Z,0.21
2023-03-17T05:41:02.210Z,0.26
2023-03-17T05:42:02.180Z,0.28
2023-03-17T05:43:02.280Z,0.31
2023-03-17T05:44:02.158Z,0.33
2023-03-17T05:45:02.183Z,0.38
2023-03-17T05:46:02.176Z,0.42
2023-03-17T05:47:02.147Z,0.47
2023-03-17T05:48:02.122Z,0.55
2023-03-17T05:49:02.135Z,0.61
2023-03-17T05:50:02.133Z,0.68
2023-03-17T05:51:02.420Z,0.70
2023-03-17T05:52:02.067Z,0.72
2023-03-17T05:53:02.069Z,0.73
2023-03-17T05:54:02.051Z,0.75
2023-03-17T05:55:02.171Z,0.73
2023-03-17T05:56:02.056Z,0.76
2023-03-17T05:57:02.080Z,0.79
2023-03-17T05:58:02.000Z,0.84
2023-03-17T05:59:01.997Z,0.90
2023-03-17T06:00:01.982Z,0.94
2023-03-17T06:01:02.004Z,0.98
2023-03-17T06:02:02.008Z,0.98
2023-03-17T06:03:01.998Z,1.08
2023-03-17T06:04:01.972Z,1.23
2023-03-17T06:05:01.948Z,1.36
2023-03-17T06:06:01.912Z,1.47
2023-03-17T06:07:01.939Z,1.51
2023-03-17T06:08:01.915Z,1.59
2023-03-17T06:09:01.922Z,1.59
2023-03-17T06:10:01.880Z,1.60
2023-03-17T06:11:01.902Z,1.60
2023-03-17T06:12:01.878Z,1.59
2023-03-17T06:13:03.895Z,1.55
2023-03-17T06:14:01.863Z,1.54
2023-03-17T06:15:01.851Z,1.52
2023-03-17T06:16:01.832Z,1.50
2023-03-17T06:17:01.812Z,1.50
2023-03-17T06:18:01.789Z,1.51
2023-03-17T06:19:01.797Z,1.50
2023-03-17T06:20:01.776Z,1.50
2023-03-17T06:21:01.788Z,1.47
2023-03-17T06:22:01.792Z,1.47
2023-03-17T06:23:05.261Z,1.42
2023-03-17T06:24:01.722Z,1.44
2023-03-17T06:25:01.735Z,1.44
2023-03-17T06:26:01.865Z,1.44
2023-03-17T06:27:01.748Z,1.45
2023-03-17T06:28:01.677Z,1.45
2023-03-17T06:29:01.691Z,1.47
2023-03-17T06:30:01.656Z,1.45
2023-03-17T06:31:01.754Z,1.48
2023-03-17T06:32:18.817Z,1.48
2023-03-17T06:33:02.735Z,1.51
2023-03-17T06:34:01.616Z,1.52
2023-03-17T06:35:01.625Z,1.54
2023-03-17T06:36:01.625Z,1.55
2023-03-17T06:37:01.596Z,1.58
2023-03-17T06:38:01.573Z,1.59
2023-03-17T06:39:01.607Z,1.63
2023-03-17T06:40:01.552Z,1.66
2023-03-17T06:41:01.567Z,1.72
2023-03-17T06:42:01.507Z,1.76
2023-03-17T06:43:01.552Z,1.81
2023-03-17T06:44:01.574Z,1.84
2023-03-17T06:45:01.522Z,1.90
2023-03-17T06:46:01.475Z,1.95
2023-03-17T06:47:01.490Z,2.02
2023-03-17T06:48:01.456Z,2.09
2023-03-17T06:49:01.463Z,2.16
2023-03-17T06:50:01.465Z,2.24
2023-03-17T06:51:02.232Z,2.31
2023-03-17T06:52:01.569Z,2.39
2023-03-17T06:53:01.584Z,2.45
2023-03-17T06:54:01.415Z,2.52
2023-03-17T06:55:01.395Z,2.59
2023-03-17T06:56:01.367Z,2.64
2023-03-17T06:57:01.415Z,2.72
2023-03-17T06:58:01.353Z,2.77
2023-03-17T06:59:01.353Z,2.82
2023-03-17T07:00:01.305Z,2.89
2023-03-17T07:01:01.355Z,2.95
2023-03-17T07:02:01.320Z,3.02
2023-03-17T07:03:01.299Z,3.06
2023-03-17T07:04:01.285Z,3.11
2023-03-17T07:05:01.372Z,3.15
2023-03-17T07:06:01.232Z,3.23
2023-03-17T07:07:01.261Z,3.32
2023-03-17T07:08:01.243Z,3.39
2023-03-17T07:09:02.333Z,3.51
2023-03-17T07:10:01.203Z,3.60
2023-03-17T07:11:01.344Z,3.69
2023-03-17T07:12:01.182Z,3.76
2023-03-17T07:13:01.781Z,3.86
2023-03-17T07:14:01.183Z,3.93
2023-03-17T07:15:01.216Z,4.00
2023-03-17T07:16:01.189Z,4.06
2023-03-17T07:17:01.150Z,4.15
2023-03-17T07:18:01.251Z,4.20
2023-03-17T07:19:01.147Z,4.30
2023-03-17T07:20:01.138Z,4.36
2023-03-17T07:21:01.112Z,4.45
2023-03-17T07:22:01.101Z,4.52
2023-03-17T07:23:01.136Z,4.62
2023-03-17T07:24:01.045Z,4.70
2023-03-17T07:25:01.077Z,4.80
2023-03-17T07:26:01.032Z,4.92
2023-03-17T07:27:01.078Z,5.02
2023-03-17T07:28:01.009Z,5.13
2023-03-17T07:29:01.495Z,5.27
2023-03-17T07:30:01.010Z,5.39
2023-03-17T07:31:01.062Z,5.53
2023-03-17T07:32:00.988Z,5.63
2023-03-17T07:33:01.056Z,5.72
2023-03-17T07:34:00.973Z,5.79
2023-03-17T07:35:00.981Z,5.86
2023-03-17T07:36:00.957Z,5.93
2023-03-17T07:37:00.972Z,6.00
2023-03-17T07:38:00.909Z,6.06
2023-03-17T07:39:00.967Z,6.12
2023-03-17T07:40:00.868Z,6.17
2023-03-17T07:41:01.034Z,6.19
2023-03-17T07:42:00.929Z,6.28
2023-03-17T07:43:00.940Z,6.34
2023-03-17T07:44:00.998Z,6.41
2023-03-17T07:45:00.921Z,6.51
2023-03-17T07:46:00.898Z,6.56
2023-03-17T07:47:00.928Z,6.61
2023-03-17T07:48:00.847Z,6.69
2023-03-17T07:49:00.996Z,6.76
2023-03-17T07:50:00.881Z,6.84
2023-03-17T07:51:00.856Z,6.89
2023-03-17T07:52:00.827Z,6.97
2023-03-17T07:53:00.810Z,7.02
2023-03-17T07:54:00.794Z,7.07
2023-03-17T07:55:00.807Z,7.13
2023-03-17T07:56:00.758Z,7.20
2023-03-17T07:57:00.756Z,7.23
2023-03-17T07:58:00.856Z,7.27
2023-03-17T07:59:00.719Z,7.28
2023-03-17T08:00:00.650Z,7.34
2023-03-17T08:01:00.724Z,7.42
2023-03-17T08:02:00.765Z,7.49
2023-03-17T08:03:09.830Z,7.53
2023-03-17T08:04:01.813Z,7.57
2023-03-17T08:05:00.687Z,7.63
2023-03-17T08:06:00.714Z,7.74
2023-03-17T08:07:01.471Z,7.82
2023-03-17T08:08:00.608Z,7.92
2023-03-17T08:09:00.654Z,7.97
2023-03-17T08:10:00.605Z,8.04
2023-03-17T08:11:00.675Z,8.11
2023-03-17T08:12:00.580Z,8.20
2023-03-17T08:13:00.633Z,8.30
2023-03-17T08:14:00.574Z,8.43
2023-03-17T08:15:00.572Z,8.55
2023-03-17T08:16:00.463Z,8.65
2023-03-17T08:17:00.705Z,8.80
2023-03-17T08:18:00.552Z,8.89
2023-03-17T08:19:00.568Z,8.99
2023-03-17T08:20:00.489Z,9.05
2023-03-17T08:21:00.545Z,9.17
2023-03-17T08:22:01.174Z,9.28
2023-03-17T08:23:00.511Z,9.39
2023-03-17T08:24:00.413Z,9.50
2023-03-17T08:25:00.506Z,9.57
2023-03-17T08:26:00.452Z,9.65
2023-03-17T08:27:01.002Z,9.72
2023-03-17T08:28:01.095Z,9.81
2023-03-17T08:29:00.414Z,9.86
2023-03-17T08:30:00.433Z,9.90
2023-03-17T08:31:00.458Z,10.02
2023-03-17T08:32:00.382Z,10.12
2023-03-17T08:33:00.355Z,10.14
2023-03-17T08:34:00.481Z,10.20
2023-03-17T08:35:00.440Z,10.27
2023-03-17T08:36:00.380Z,10.32
2023-03-17T08:37:00.342Z,10.33
2023-03-17T08:38:00.286Z,10.40
2023-03-17T08:39:00.331Z,10.42
2023-03-17T08:40:00.272Z,10.38
2023-03-17T08:41:00.277Z,10.33
2023-03-17T08:42:00.256Z,10.33
2023-03-17T08:43:00.233Z,10.33
2023-03-17T08:44:00.222Z,10.34
2023-03-17T08:45:00.399Z,10.34
2023-03-17T08:46:00.246Z,10.34
2023-03-17T08:47:00.335Z,10.34
2023-03-17T08:48:00.864Z,10.33
2023-03-17T08:49:00.176Z,10.29
2023-03-17T08:50:00.148Z,10.26
2023-03-17T08:51:00.179Z,10.30
2023-03-17T08:52:00.133Z,10.33
2023-03-17T08:53:00.100Z,10.34
2023-03-17T08:54:00.034Z,10.36
2023-03-17T08:55:00.046Z,10.41
2023-03-17T08:56:00.013Z,10.47
2023-03-17T08:57:00.077Z,10.53
2023-03-17T08:58:00.049Z,10.59
2023-03-17T08:59:00.001Z,10.64
2023-03-17T08:59:59.966Z,10.71
2023-03-17T09:01:00.047Z,10.76
2023-03-17T09:01:59.955Z,10.81
2023-03-17T09:03:00.129Z,10.91
2023-03-17T09:03:59.973Z,10.99
2023-03-17T09:04:59.934Z,11.09
2023-03-17T09:05:59.911Z,11.18
2023-03-17T09:07:03.784Z,11.27
2023-03-17T09:08:00.818Z,11.33
2023-03-17T09:08:59.945Z,11.33
2023-03-17T09:09:59.876Z,11.36
2023-03-17T09:10:59.874Z,11.42
2023-03-17T09:11:59.865Z,11.44
2023-03-17T09:12:59.845Z,11.47
2023-03-17T09:13:59.824Z,11.52
2023-03-17T09:14:59.912Z,11.57
2023-03-17T09:15:59.829Z,11.62
2023-03-17T09:16:59.816Z,11.69
2023-03-17T09:17:59.985Z,11.79
2023-03-17T09:18:59.819Z,11.83
2023-03-17T09:19:59.765Z,11.88
2023-03-17T09:20:59.759Z,11.90
2023-03-17T09:21:59.724Z,11.90
2023-03-17T09:22:59.746Z,11.95
2023-03-17T09:24:02.203Z,11.98
2023-03-17T09:24:59.717Z,11.98
2023-03-17T09:25:59.674Z,12.04
2023-03-17T09:26:59.744Z,12.10
2023-03-17T09:28:00.459Z,12.17
2023-03-17T09:29:02.486Z,12.23
2023-03-17T09:29:59.668Z,12.34
2023-03-17T09:30:59.720Z,12.38
2023-03-17T09:31:59.633Z,12.42
2023-03-17T09:32:59.665Z,12.46
2023-03-17T09:33:59.604Z,12.50
2023-03-17T09:34:59.599Z,12.54
2023-03-17T09:35:59.611Z,12.59
2023-03-17T09:36:59.575Z,12.64
2023-03-17T09:37:59.565Z,12.68
2023-03-17T09:38:59.563Z,12.71
2023-03-17T09:39:59.527Z,12.71
2023-03-17T09:40:59.547Z,12.77
2023-03-17T09:41:59.533Z,12.85
2023-03-17T09:42:59.483Z,12.89
2023-03-17T09:43:59.491Z,12.97
2023-03-17T09:44:59.487Z,13.08
2023-03-17T09:45:59.540Z,13.11
2023-03-17T09:46:59.444Z,13.14
2023-03-17T09:47:59.465Z,13.17
2023-03-17T09:48:59.486Z,13.23
2023-03-17T09:49:59.444Z,13.32
2023-03-17T09:50:59.442Z,13.32
2023-03-17T09:51:59.415Z,13.36
2023-03-17T09:53:05.977Z,13.41
2023-03-17T09:54:25.833Z,13.46
2023-03-17T09:55:07.467Z,13.51
2023-03-17T09:55:59.373Z,13.57
2023-03-17T09:56:59.371Z,13.63
2023-03-17T09:57:59.356Z,13.63
2023-03-17T09:58:59.347Z,13.70
2023-03-17T09:59:59.303Z,13.77
2023-03-17T10:00:59.395Z,13.82
2023-03-17T10:01:59.511Z,13.85
2023-03-17T10:02:59.522Z,13.91
2023-03-17T10:03:59.492Z,13.97
2023-03-17T10:04:59.506Z,14.00
2023-03-17T10:05:59.393Z,14.06
2023-03-17T10:06:59.374Z,14.07
2023-03-17T10:07:59.394Z,14.04
2023-03-17T10:08:59.600Z,14.09
2023-03-17T10:09:59.571Z,14.12
2023-03-17T10:10:59.418Z,14.12
2023-03-17T10:11:59.353Z,14.14
2023-03-17T10:12:59.384Z,14.12
2023-03-17T10:13:59.363Z,14.14
2023-03-17T10:14:59.320Z,14.14
2023-03-17T10:15:59.376Z,14.17
2023-03-17T10:16:59.298Z,14.18
2023-03-17T10:17:59.299Z,14.20
2023-03-17T10:18:59.309Z,14.27
2023-03-17T10:19:59.236Z,14.33
2023-03-17T10:20:59.253Z,14.35
2023-03-17T10:21:59.220Z,14.29
2023-03-17T10:22:59.312Z,14.36
2023-03-17T10:23:59.228Z,14.40
2023-03-17T10:25:00.171Z,14.45
2023-03-17T10:25:59.177Z,14.45
2023-03-17T10:26:59.243Z,14.43
2023-03-17T10:27:59.220Z,14.46
2023-03-17T10:28:59.258Z,14.47
2023-03-17T10:29:59.779Z,14.50
2023-03-17T10:30:58.971Z,14.52
2023-03-17T10:31:59.137Z,14.46
2023-03-17T10:32:59.070Z,14.50
2023-03-17T10:33:58.963Z,14.52
2023-03-17T10:34:58.913Z,14.57
2023-03-17T10:35:58.952Z,14.65
2023-03-17T10:36:58.901Z,14.73
2023-03-17T10:38:13.607Z,14.80
2023-03-17T10:38:59.876Z,14.80
2023-03-17T10:39:58.852Z,14.83
2023-03-17T10:40:58.907Z,14.88
2023-03-17T10:41:58.824Z,14.89
2023-03-17T10:42:58.822Z,14.86
2023-03-17T10:43:58.805Z,14.84
2023-03-17T10:44:58.801Z,14.86
2023-03-17T10:45:58.828Z,14.86
2023-03-17T10:46:58.813Z,14.84
2023-03-17T10:47:58.764Z,14.83
2023-03-17T10:48:58.766Z,14.80
2023-03-17T10:49:59.648Z,14.77
2023-03-17T10:50:59.548Z,14.77
2023-03-17T10:51:58.734Z,14.80
2023-03-17T10:52:58.752Z,14.83
2023-03-17T10:53:58.727Z,14.84
2023-03-17T10:54:58.707Z,14.86
2023-03-17T10:55:58.705Z,14.86
2023-03-17T10:56:59.271Z,14.91
2023-03-17T10:57:58.674Z,14.92
2023-03-17T10:58:58.645Z,14.91
2023-03-17T10:59:58.652Z,14.91
2023-03-17T11:00:58.670Z,14.91
2023-03-17T11:01:58.652Z,14.86
2023-03-17T11:02:58.638Z,14.83
2023-03-17T11:03:58.649Z,14.83
2023-03-17T11:04:58.677Z,14.81
2023-03-17T11:05:58.570Z,14.77
2023-03-17T11:06:58.575Z,14.73
2023-03-17T11:07:58.570Z,14.73
2023-03-17T11:08:58.549Z,14.69
2023-03-17T11:09:58.543Z,14.68
2023-03-17T11:10:58.823Z,14.68
2023-03-17T11:11:58.500Z,14.69
2023-03-17T11:12:58.521Z,14.73
2023-03-17T11:13:58.448Z,14.77
2023-03-17T11:14:58.484Z,14.77
2023-03-17T11:15:58.490Z,14.72
2023-03-17T11:16:58.448Z,14.73
2023-03-17T11:17:58.420Z,14.75
2023-03-17T11:18:58.436Z,14.81
2023-03-17T11:19:58.391Z,14.81
2023-03-17T11:20:58.432Z,14.84
2023-03-17T11:21:58.378Z,14.84
2023-03-17T11:22:58.394Z,14.89
2023-03-17T11:23:58.361Z,14.91
2023-03-17T11:24:58.519Z,14.99
2023-03-17T11:25:58.334Z,15.03
2023-03-17T11:26:59.299Z,15.01
2023-03-17T11:27:58.340Z,15.06
2023-03-17T11:28:58.329Z,15.10
2023-03-17T11:29:58.343Z,15.14
2023-03-17T11:30:59.046Z,15.17
2023-03-17T11:31:58.313Z,15.19
2023-03-17T11:32:58.344Z,15.23
2023-03-17T11:33:58.247Z,15.19
2023-03-17T11:34:58.248Z,15.20
2023-03-17T11:35:58.245Z,15.19
2023-03-17T11:36:59.998Z,15.17
2023-03-17T11:37:58.191Z,15.19
2023-03-17T11:38:58.233Z,15.20
2023-03-17T11:39:58.177Z,15.21
2023-03-17T11:40:58.188Z,15.25
2023-03-17T11:41:58.161Z,15.29
2023-03-17T11:42:58.177Z,15.29
2023-03-17T11:43:58.131Z,15.34
2023-03-17T11:44:58.172Z,15.41
2023-03-17T11:45:58.132Z,15.44
2023-03-17T11:46:58.130Z,15.43
2023-03-17T11:47:59.909Z,15.35
2023-03-17T11:48:58.097Z,15.35
2023-03-17T11:49:58.060Z,15.35
2023-03-17T11:50:58.776Z,15.32
2023-03-17T11:51:58.139Z,15.35
2023-03-17T11:52:58.124Z,15.38
2023-03-17T11:53:58.011Z,15.41
2023-03-17T11:54:58.982Z,15.46
2023-03-17T11:55:58.055Z,15.43
2023-03-17T11:56:58.099Z,15.43
2023-03-17T11:57:57.997Z,15.50
2023-03-17T11:58:57.992Z,15.53
2023-03-17T11:59:57.961Z,15.57
2023-03-17T12:00:57.968Z,15.62
2023-03-17T12:01:58.142Z,15.67
2023-03-17T12:02:57.960Z,15.65
2023-03-17T12:03:58.757Z,15.65
2023-03-17T12:04:57.950Z,15.62
2023-03-17T12:05:57.953Z,15.69
2023-03-17T12:06:57.891Z,15.74
2023-03-17T12:07:57.885Z,15.82
2023-03-17T12:08:57.893Z,15.83
2023-03-17T12:09:57.853Z,15.78
2023-03-17T12:10:57.926Z,15.74
2023-03-17T12:11:58.029Z,15.72
2023-03-17T12:12:58.008Z,15.72
2023-03-17T12:13:57.820Z,15.71
2023-03-17T12:14:57.809Z,15.69
2023-03-17T12:15:57.795Z,15.67
2023-03-17T12:16:57.780Z,15.67
2023-03-17T12:17:57.755Z,15.71
2023-03-17T12:18:57.771Z,15.75
2023-03-17T12:19:57.725Z,15.78
2023-03-17T12:20:57.746Z,15.80
2023-03-17T12:21:57.724Z,15.76
2023-03-17T12:22:57.747Z,15.78
2023-03-17T12:23:57.741Z,15.86
2023-03-17T12:24:57.732Z,15.92
2023-03-17T12:25:57.685Z,15.97
2023-03-17T12:26:57.720Z,16.02
2023-03-17T12:27:57.682Z,16.07
2023-03-17T12:28:57.809Z,16.05
2023-03-17T12:29:57.709Z,16.00
2023-03-17T12:30:57.675Z,16.05
2023-03-17T12:31:57.724Z,16.14
2023-03-17T12:32:57.725Z,16.27
2023-03-17T12:33:57.567Z,16.38
2023-03-17T12:34:57.642Z,16.45
2023-03-17T12:35:57.632Z,16.53
2023-03-17T12:36:57.574Z,16.61
2023-03-17T12:37:57.554Z,16.67
2023-03-17T12:38:57.537Z,16.68
2023-03-17T12:39:57.513Z,16.73
2023-03-17T12:40:57.535Z,16.79
2023-03-17T12:41:57.484Z,16.88
2023-03-17T12:42:57.520Z,16.91
2023-03-17T12:43:57.465Z,16.98
2023-03-17T12:44:57.530Z,17.03
2023-03-17T12:45:57.481Z,17.07
2023-03-17T12:46:57.445Z,17.06
2023-03-17T12:47:57.425Z,17.01
2023-03-17T12:48:57.440Z,17.06
2023-03-17T12:49:57.396Z,17.01
2023-03-17T12:50:57.406Z,16.96
2023-03-17T12:51:57.685Z,17.01
2023-03-17T12:52:57.384Z,17.01
2023-03-17T12:53:57.372Z,16.94
2023-03-17T12:54:57.364Z,16.89
2023-03-17T12:55:57.335Z,16.93
2023-03-17T12:56:57.342Z,17.00
2023-03-17T12:57:57.296Z,17.07
2023-03-17T12:58:57.316Z,17.16
2023-03-17T12:59:57.300Z,17.23
2023-03-17T13:00:57.289Z,17.23
2023-03-17T13:01:57.338Z,17.22
2023-03-17T13:02:57.366Z,17.22
2023-03-17T13:03:57.246Z,17.22
2023-03-17T13:04:57.244Z,17.18
2023-03-17T13:05:57.215Z,17.18
2023-03-17T13:06:57.234Z,17.18
2023-03-17T13:07:57.336Z,17.16
2023-03-17T13:08:57.209Z,17.18